Time;durP1;ratioP1;P1;durP2;ratioP2;P2;SDS_P1;SDS_P2;PMS_P1;PMS_P2;Temp;Humidity;BMP_temperature;BMP_pressure;BME280_temperature;BME280_humidity;BME280_pressure;Samples;Min_cycle;Max_cycle;Signal;HPM_P1;HPM_P2
2022/06/30 00:00:25;;;;;;;11.18;8.55;;;23.20;99.90;;;;;;5052614;28;20029;-52
2022/06/30 00:02:51;;;;;;;11.57;8.23;;;23.10;99.90;;;;;;5051460;28;20203;-49
2022/06/30 00:05:16;;;;;;;9.20;7.85;;;23.10;99.90;;;;;;5033340;28;20028;-49
2022/06/30 00:07:42;;;;;;;8.90;7.90;;;23.10;99.90;;;;;;5050423;28;20419;-47
2022/06/30 00:10:10;;;;;;;11.30;8.23;;;23.00;99.90;;;;;;5051186;28;20389;-49
2022/06/30 00:12:35;;;;;;;14.68;8.43;;;23.00;99.90;;;;;;5051125;28;20079;-52
2022/06/30 00:15:01;;;;;;;13.93;8.65;;;23.00;99.90;;;;;;5051361;28;20453;-49
2022/06/30 00:17:26;;;;;;;14.48;8.88;;;23.10;99.90;;;;;;5050350;28;20033;-46
2022/06/30 00:19:52;;;;;;;11.13;8.68;;;23.10;99.90;;;;;;5051312;28;20052;-49
2022/06/30 00:22:17;;;;;;;11.35;8.80;;;23.10;99.90;;;;;;5051373;28;20112;-47
2022/06/30 00:24:43;;;;;;;10.63;8.63;;;23.00;99.90;;;;;;5051564;28;20029;-49
2022/06/30 00:27:08;;;;;;;14.20;9.32;;;22.90;99.90;;;;;;5050177;28;20032;-50
2022/06/30 00:29:34;;;;;;;14.20;9.25;;;22.80;99.90;;;;;;5051223;28;20143;-47
2022/06/30 00:31:59;;;;;;;11.38;9.63;;;22.80;99.90;;;;;;5051132;28;20021;-49
2022/06/30 00:34:25;;;;;;;13.40;9.02;;;22.80;99.90;;;;;;5050943;28;20021;-49
2022/06/30 00:36:50;;;;;;;13.20;9.27;;;22.80;99.90;;;;;;5054209;28;20056;-48
2022/06/30 00:39:16;;;;;;;11.18;9.30;;;22.80;99.90;;;;;;5054714;28;20036;-47
2022/06/30 00:41:42;;;;;;;13.57;10.48;;;22.70;99.90;;;;;;5054725;28;20438;-49
2022/06/30 00:44:10;;;;;;;13.15;10.05;;;22.60;99.90;;;;;;5054732;28;20028;-52
2022/06/30 00:46:35;;;;;;;14.15;10.18;;;22.60;99.90;;;;;;5054625;28;20044;-50
2022/06/30 00:49:02;;;;;;;12.65;9.85;;;22.50;99.90;;;;;;5053696;28;20049;-49
2022/06/30 00:51:28;;;;;;;11.40;9.48;;;22.50;99.90;;;;;;5054437;28;20534;-49
2022/06/30 00:53:56;;;;;;;13.27;9.73;;;22.50;99.90;;;;;;5054524;28;20108;-51
2022/06/30 00:56:26;;;;;;;13.18;10.60;;;22.40;99.90;;;;;;5054360;28;20013;-50
2022/06/30 00:58:55;;;;;;;11.13;10.10;;;22.30;99.90;;;;;;5053629;28;20404;-47
2022/06/30 01:01:23;;;;;;;13.35;10.23;;;22.20;99.90;;;;;;5054472;28;20033;-48
2022/06/30 01:03:50;;;;;;;15.57;11.05;;;22.20;99.90;;;;;;5054276;28;20021;-48
2022/06/30 01:06:17;;;;;;;17.10;10.43;;;22.10;99.90;;;;;;5054383;28;20033;-49
2022/06/30 01:08:43;;;;;;;12.88;10.15;;;22.10;99.90;;;;;;5053064;28;20025;-48
2022/06/30 01:13:53;;;;;;;10.85;9.75;;;22.10;99.90;;;;;;5054592;28;20289;-50
2022/06/30 01:16:21;;;;;;;12.00;10.90;;;22.10;99.90;;;;;;5053982;28;20100;-47
2022/06/30 01:18:47;;;;;;;13.15;10.70;;;22.10;99.90;;;;;;5053324;28;20049;-47
2022/06/30 01:21:12;;;;;;;11.55;10.35;;;22.00;99.90;;;;;;5054175;28;20039;-52
2022/06/30 01:23:38;;;;;;;12.50;11.13;;;22.00;99.90;;;;;;5054032;28;20025;-48
2022/06/30 01:26:03;;;;;;;12.02;10.82;;;21.90;99.90;;;;;;5036059;28;20017;-48
2022/06/30 01:28:29;;;;;;;14.05;11.00;;;21.80;99.90;;;;;;5053172;28;20020;-48
2022/06/30 01:30:55;;;;;;;12.82;11.43;;;21.80;99.90;;;;;;5053664;28;20021;-49
2022/06/30 01:33:20;;;;;;;11.70;10.48;;;21.80;99.90;;;;;;5052111;28;20062;-49
2022/06/30 01:35:46;;;;;;;11.80;10.60;;;21.70;99.90;;;;;;5053820;28;20029;-48
2022/06/30 01:38:11;;;;;;;10.57;9.57;;;21.60;99.90;;;;;;5052879;28;20031;-47
2022/06/30 01:40:37;;;;;;;10.75;9.70;;;21.60;99.90;;;;;;5053558;28;20025;-47
2022/06/30 01:43:11;;;;;;;11.27;10.32;;;21.50;99.90;;;;;;5035706;28;20033;-47
2022/06/30 01:45:37;;;;;;;10.50;9.50;;;21.50;99.90;;;;;;5053555;28;20027;-50
2022/06/30 01:48:03;;;;;;;12.30;10.60;;;21.50;99.90;;;;;;5052611;28;20135;-49
2022/06/30 01:50:30;;;;;;;11.80;10.60;;;21.50;99.90;;;;;;5053457;28;20492;-47
2022/06/30 01:52:56;;;;;;;20.63;10.32;;;21.50;99.90;;;;;;5053483;28;20047;-47
2022/06/30 01:55:22;;;;;;;14.43;10.95;;;21.50;99.90;;;;;;5053423;28;20017;-47
2022/06/30 01:57:48;;;;;;;14.52;10.63;;;21.60;99.90;;;;;;5052471;28;21585;-47
2022/06/30 02:00:17;;;;;;;12.32;11.10;;;21.60;99.90;;;;;;5053315;28;20025;-47
2022/06/30 02:02:43;;;;;;;13.73;11.23;;;21.60;99.90;;;;;;5053252;28;20451;-46
2022/06/30 02:05:09;;;;;;;11.55;10.32;;;21.60;99.90;;;;;;5035255;28;20036;-46
2022/06/30 02:07:36;;;;;;;12.13;10.68;;;21.60;99.90;;;;;;5052294;28;20074;-47
2022/06/30 02:10:07;;;;;;;10.60;9.65;;;21.50;99.90;;;;;;5052908;28;20067;-47
2022/06/30 02:12:45;;;;;;;17.02;10.07;;;21.50;99.90;;;;;;5053058;28;20021;-46
2022/06/30 02:15:19;;;;;;;11.00;10.00;;;21.40;99.90;;;;;;5053006;28;20365;-46
2022/06/30 02:17:46;;;;;;;15.77;10.77;;;21.40;99.90;;;;;;5052406;28;20178;-47
2022/06/30 02:20:13;;;;;;;13.07;10.48;;;21.40;99.90;;;;;;5052919;28;20032;-47
2022/06/30 02:22:40;;;;;;;13.85;9.95;;;21.30;99.90;;;;;;5052769;28;20492;-46
2022/06/30 02:25:06;;;;;;;15.68;11.43;;;21.20;99.90;;;;;;5052935;28;20032;-47
2022/06/30 02:27:32;;;;;;;11.77;10.63;;;21.20;99.90;;;;;;5052261;28;20028;-49
2022/06/30 02:29:58;;;;;;;17.55;10.63;;;21.20;99.90;;;;;;5035032;28;20029;-47
2022/06/30 02:32:24;;;;;;;14.48;11.63;;;21.20;99.90;;;;;;5052776;28;20374;-47
2022/06/30 02:34:50;;;;;;;11.93;10.70;;;21.00;99.90;;;;;;5050849;28;20057;-46
2022/06/30 02:37:16;;;;;;;11.90;10.85;;;21.00;99.90;;;;;;5051870;28;20024;-50
2022/06/30 02:39:42;;;;;;;11.85;10.55;;;21.00;99.90;;;;;;5052651;28;20017;-47
2022/06/30 02:42:08;;;;;;;14.63;10.68;;;21.00;99.90;;;;;;5052488;28;20025;-47
2022/06/30 02:44:34;;;;;;;11.20;10.10;;;21.00;99.90;;;;;;5052570;28;20025;-47
2022/06/30 02:46:59;;;;;;;12.52;11.23;;;21.10;99.90;;;;;;5051574;28;20082;-47
2022/06/30 02:49:25;;;;;;;12.77;11.00;;;21.10;99.90;;;;;;5052312;28;20340;-47
2022/06/30 02:51:50;;;;;;;11.25;10.25;;;21.10;99.90;;;;;;5034357;28;20056;-49
2022/06/30 02:54:16;;;;;;;11.63;10.63;;;20.90;99.90;;;;;;5052196;28;20033;-47
2022/06/30 02:56:42;;;;;;;12.93;10.80;;;20.90;99.90;;;;;;5051434;28;20021;-47
2022/06/30 02:59:08;;;;;;;11.88;10.68;;;20.80;99.90;;;;;;5051566;28;20488;-47
2022/06/30 03:01:34;;;;;;;11.52;10.32;;;20.70;99.90;;;;;;5052201;28;20121;-46
2022/06/30 03:04:02;;;;;;;12.25;10.88;;;20.60;99.90;;;;;;5052017;28;20086;-46
2022/06/30 03:06:28;;;;;;;14.00;11.57;;;20.60;99.90;;;;;;5052077;28;20400;-47
2022/06/30 03:08:55;;;;;;;13.02;11.70;;;20.60;99.90;;;;;;5051196;28;20032;-47
2022/06/30 03:11:21;;;;;;;12.75;11.55;;;20.60;99.90;;;;;;5052119;28;20100;-47
2022/06/30 03:13:47;;;;;;;13.85;12.38;;;20.60;99.90;;;;;;5051993;28;20577;-50
2022/06/30 03:16:12;;;;;;;12.57;11.38;;;20.60;99.90;;;;;;5051819;28;20033;-47
2022/06/30 03:18:39;;;;;;;13.13;11.32;;;20.60;99.90;;;;;;5033142;28;20029;-48
2022/06/30 03:21:05;;;;;;;11.00;9.88;;;20.70;99.90;;;;;;5051870;28;20032;-47
2022/06/30 03:23:30;;;;;;;10.93;9.75;;;20.70;99.90;;;;;;5051831;28;20017;-48
2022/06/30 03:25:56;;;;;;;11.88;10.77;;;20.80;99.90;;;;;;5051698;28;20108;-52
2022/06/30 03:28:21;;;;;;;12.05;10.38;;;20.80;99.90;;;;;;5032923;28;20021;-47
2022/06/30 03:30:47;;;;;;;11.82;10.60;;;20.80;99.90;;;;;;5051598;28;20492;-47
2022/06/30 03:33:17;;;;;;;12.05;10.65;;;20.90;99.90;;;;;;5050055;28;20100;-49
2022/06/30 03:35:44;;;;;;;12.27;10.82;;;20.90;99.90;;;;;;5051807;28;20108;-47
2022/06/30 03:38:10;;;;;;;12.95;10.93;;;20.90;99.90;;;;;;5050674;28;20079;-47
2022/06/30 03:40:35;;;;;;;12.43;10.63;;;21.00;99.90;;;;;;5051620;28;20313;-48
2022/06/30 03:43:01;;;;;;;13.50;12.00;;;20.90;99.90;;;;;;5051734;28;20027;-48
2022/06/30 03:45:27;;;;;;;16.63;13.00;;;20.90;99.90;;;;;;5051335;28;20033;-47
2022/06/30 03:47:53;;;;;;;12.82;11.68;;;20.80;99.90;;;;;;5050631;28;20025;-47
2022/06/30 03:50:18;;;;;;;13.85;11.88;;;20.80;99.90;;;;;;5051377;28;20112;-47
2022/06/30 03:52:44;;;;;;;12.90;11.60;;;20.70;99.90;;;;;;5051316;28;20025;-47
2022/06/30 03:55:10;;;;;;;13.05;11.77;;;20.70;99.90;;;;;;5050779;28;20025;-47
2022/06/30 03:57:36;;;;;;;13.30;11.18;;;20.70;99.90;;;;;;5046141;28;20087;-47
2022/06/30 04:00:03;;;;;;;14.90;11.43;;;20.70;99.90;;;;;;5051731;28;20393;-49
2022/06/30 04:02:28;;;;;;;13.05;11.70;;;20.70;99.90;;;;;;5047184;28;20032;-50
2022/06/30 04:04:54;;;;;;;13.13;10.35;;;20.70;99.90;;;;;;5051862;28;20025;-48
2022/06/30 04:07:19;;;;;;;11.65;10.55;;;20.80;99.90;;;;;;5050423;28;20484;-48
2022/06/30 04:09:45;;;;;;;11.55;10.52;;;20.80;99.90;;;;;;5054513;28;20028;-46
2022/06/30 04:12:11;;;;;;;15.35;11.27;;;20.90;99.90;;;;;;5054399;28;20040;-47
2022/06/30 04:14:36;;;;;;;12.70;11.55;;;20.90;99.90;;;;;;5037191;28;20017;-49
2022/06/30 04:17:02;;;;;;;12.23;10.65;;;20.90;99.90;;;;;;5040130;28;20072;-48
2022/06/30 04:19:30;;;;;;;11.73;10.05;;;20.90;99.90;;;;;;5040054;28;20024;-49
2022/06/30 04:21:56;;;;;;;12.20;10.90;;;20.90;99.90;;;;;;5054956;28;20515;-49
2022/06/30 04:24:21;;;;;;;12.88;10.73;;;21.00;99.90;;;;;;5037289;28;20025;-49
2022/06/30 04:26:47;;;;;;;13.50;10.65;;;21.00;99.90;;;;;;5054047;28;20139;-52
2022/06/30 04:29:12;;;;;;;13.43;10.93;;;21.00;99.90;;;;;;5031964;28;20025;-50
2022/06/30 04:34:22;;;;;;;11.38;10.07;;;21.20;99.90;;;;;;5054195;28;20102;-50
2022/06/30 04:36:47;;;;;;;12.10;10.38;;;21.40;99.90;;;;;;5053825;28;20036;-48
2022/06/30 04:39:13;;;;;;;11.52;10.27;;;21.50;99.90;;;;;;5040467;28;20060;-50
2022/06/30 04:41:39;;;;;;;15.05;10.52;;;21.70;99.90;;;;;;5047712;28;20381;-51
2022/06/30 04:44:05;;;;;;;13.10;9.55;;;21.80;99.90;;;;;;5048645;28;20063;-51
2022/06/30 04:46:31;;;;;;;14.55;10.05;;;21.90;99.90;;;;;;5054757;28;20056;-47
2022/06/30 04:48:57;;;;;;;10.65;9.68;;;21.90;99.90;;;;;;5052931;28;20056;-50
2022/06/30 04:51:23;;;;;;;12.20;9.23;;;22.00;99.90;;;;;;5053660;28;20020;-48
2022/06/30 04:53:49;;;;;;;11.35;9.70;;;22.10;99.90;;;;;;5054754;28;20029;-51
2022/06/30 04:56:15;;;;;;;10.85;9.75;;;22.40;99.90;;;;;;5045597;28;20036;-49
2022/06/30 04:58:41;;;;;;;15.15;10.05;;;22.70;99.90;;;;;;5051212;28;20103;-49
2022/06/30 05:01:07;;;;;;;11.93;10.70;;;23.10;99.90;;;;;;5046018;28;20109;-54
2022/06/30 05:03:33;;;;;;;12.25;10.45;;;23.70;99.90;;;;;;5053950;28;20052;-58
2022/06/30 05:05:59;;;;;;;13.38;10.32;;;24.20;99.90;;;;;;5054350;28;20029;-58
2022/06/30 05:08:25;;;;;;;12.77;11.35;;;24.60;99.90;;;;;;5053213;28;20040;-55
2022/06/30 05:10:51;;;;;;;13.15;10.48;;;25.40;99.90;;;;;;5054246;28;20021;-55
2022/06/30 05:13:16;;;;;;;11.45;9.65;;;26.00;99.90;;;;;;5054539;28;20029;-50
2022/06/30 05:15:45;;;;;;;12.70;10.57;;;26.30;99.90;;;;;;5036499;28;20021;-54
2022/06/30 05:18:11;;;;;;;11.52;9.48;;;26.70;99.90;;;;;;5053321;28;20024;-54
2022/06/30 05:20:37;;;;;;;11.15;9.82;;;26.90;99.90;;;;;;5052880;28;20116;-53
2022/06/30 05:23:02;;;;;;;10.13;9.02;;;27.30;99.90;;;;;;5056621;28;20083;-51
2022/06/30 05:28:13;;;;;;;10.07;9.07;;;28.10;99.90;;;;;;5053067;28;20159;-54
2022/06/30 05:30:39;;;;;;;11.02;9.57;;;29.00;98.50;;;;;;5053790;28;20100;-53
2022/06/30 05:33:05;;;;;;;10.57;8.75;;;29.50;97.70;;;;;;5053868;28;20021;-50
2022/06/30 05:35:30;;;;;;;13.32;9.65;;;30.20;96.70;;;;;;5053763;28;20021;-55
2022/06/30 05:37:56;;;;;;;11.32;9.27;;;30.40;95.50;;;;;;5052941;28;20021;-54
2022/06/30 05:40:22;;;;;;;14.25;9.63;;;30.60;95.20;;;;;;5053501;28;20017;-56
2022/06/30 05:42:47;;;;;;;11.77;9.48;;;30.80;94.60;;;;;;5053409;28;20056;-53
2022/06/30 05:45:13;;;;;;;15.52;8.43;;;31.00;94.50;;;;;;5053502;28;20024;-52
2022/06/30 05:47:50;;;;;;;10.43;8.23;;;31.00;94.10;;;;;;5053026;28;20036;-53
2022/06/30 05:50:16;;;;;;;10.05;8.98;;;30.90;94.30;;;;;;5053344;28;20398;-53
2022/06/30 05:52:42;;;;;;;9.80;7.68;;;31.30;93.60;;;;;;5053876;28;20037;-53
2022/06/30 05:55:09;;;;;;;10.48;8.50;;;31.60;93.10;;;;;;5053291;28;20021;-52
2022/06/30 05:57:45;;;;;;;9.50;8.00;;;31.70;92.80;;;;;;5052396;28;20028;-56
2022/06/30 06:00:11;;;;;;;11.95;7.50;;;32.10;92.40;;;;;;5068480;23;20810;-51
2022/06/30 06:02:37;;;;;;;9.52;8.15;;;32.80;91.20;;;;;;5032788;28;20108;-51
2022/06/30 06:05:03;;;;;;;7.97;7.28;;;33.20;90.50;;;;;;5033143;28;20557;-52
2022/06/30 06:07:28;;;;;;;7.93;7.20;;;33.10;90.10;;;;;;5014644;28;20022;-53
2022/06/30 06:09:54;;;;;;;13.02;8.15;;;33.30;90.20;;;;;;5032769;28;20029;-54
2022/06/30 06:12:21;;;;;;;8.02;7.22;;;33.60;89.20;;;;;;5033156;28;20025;-51
2022/06/30 06:14:47;;;;;;;9.38;7.63;;;33.80;89.00;;;;;;5033067;28;20055;-49
2022/06/30 06:17:12;;;;;;;8.60;6.32;;;34.20;87.40;;;;;;5032299;28;20133;-53
2022/06/30 06:19:38;;;;;;;7.03;6.28;;;34.20;86.80;;;;;;5033055;28;20025;-50
2022/06/30 06:22:04;;;;;;;8.85;8.02;;;34.60;86.30;;;;;;5031220;28;20021;-53
2022/06/30 06:24:29;;;;;;;8.07;7.28;;;35.00;85.20;;;;;;5031391;28;20021;-55
2022/06/30 06:26:54;;;;;;;8.23;6.95;;;35.50;84.00;;;;;;5030625;28;20049;-48
2022/06/30 06:29:21;;;;;;;12.23;6.70;;;35.50;83.00;;;;;;5032982;28;20037;-52
2022/06/30 06:31:47;;;;;;;10.65;7.95;;;35.60;83.40;;;;;;5031855;28;20071;-50
2022/06/30 06:34:12;;;;;;;11.15;7.90;;;35.20;82.00;;;;;;5032806;28;20021;-56
2022/06/30 06:36:38;;;;;;;11.68;6.68;;;34.80;82.30;;;;;;5032552;28;20101;-55
2022/06/30 06:39:04;;;;;;;7.45;5.18;;;34.40;82.80;;;;;;5029990;28;20025;-46
2022/06/30 06:41:31;;;;;;;6.45;5.95;;;34.50;83.10;;;;;;5032444;28;20068;-46
2022/06/30 06:43:57;;;;;;;8.95;6.90;;;34.60;82.40;;;;;;5032613;28;20021;-55
2022/06/30 06:46:26;;;;;;;8.02;7.22;;;35.00;82.10;;;;;;5032159;28;20109;-51
2022/06/30 06:48:54;;;;;;;11.23;6.50;;;35.10;80.90;;;;;;5029852;28;20037;-52
2022/06/30 06:51:19;;;;;;;11.20;6.45;;;35.50;80.50;;;;;;5032244;28;20024;-53
2022/06/30 06:53:45;;;;;;;7.22;5.63;;;35.70;80.20;;;;;;5032475;28;20021;-49
2022/06/30 06:56:11;;;;;;;9.98;5.75;;;36.20;79.20;;;;;;5032276;28;20028;-54
2022/06/30 06:58:36;;;;;;;6.35;5.85;;;36.80;78.30;;;;;;5031471;28;20028;-52
2022/06/30 07:01:04;;;;;;;9.80;7.68;;;37.00;77.70;;;;;;5031786;28;20137;-55
2022/06/30 07:03:30;;;;;;;9.57;6.90;;;36.90;76.40;;;;;;5031856;28;20544;-56
2022/06/30 07:05:56;;;;;;;8.07;7.28;;;36.70;76.40;;;;;;5017516;28;20087;-54
2022/06/30 07:08:22;;;;;;;5.97;5.38;;;36.60;77.10;;;;;;5013143;28;20033;-52
2022/06/30 07:10:47;;;;;;;8.43;5.85;;;37.00;76.10;;;;;;5031600;28;20030;-51
2022/06/30 07:13:13;;;;;;;6.53;5.80;;;37.40;75.90;;;;;;5032031;28;20032;-49
2022/06/30 07:15:39;;;;;;;11.93;5.43;;;37.70;76.00;;;;;;5031728;28;20032;-52
2022/06/30 07:18:04;;;;;;;7.72;5.68;;;37.90;74.80;;;;;;5031099;28;20405;-50
2022/06/30 07:20:30;;;;;;;8.70;6.70;;;38.10;74.40;;;;;;5030518;28;20511;-52
2022/06/30 07:22:55;;;;;;;6.68;6.07;;;38.50;72.60;;;;;;5031385;28;20026;-47
2022/06/30 07:25:21;;;;;;;6.85;5.45;;;38.50;72.60;;;;;;5014421;28;20076;-49
2022/06/30 07:27:46;;;;;;;6.03;5.43;;;38.50;72.10;;;;;;5030961;28;20555;-51
2022/06/30 07:30:12;;;;;;;7.35;6.18;;;38.90;72.80;;;;;;5031000;28;20110;-53
2022/06/30 07:32:38;;;;;;;8.75;5.90;;;39.10;70.90;;;;;;5018674;28;20218;-50
2022/06/30 07:35:05;;;;;;;10.10;6.80;;;38.90;70.70;;;;;;5012206;28;20022;-53
2022/06/30 07:37:31;;;;;;;6.55;5.90;;;38.90;70.20;;;;;;5030524;28;20025;-53
2022/06/30 07:39:56;;;;;;;16.55;7.10;;;38.80;70.10;;;;;;5030790;28;20025;-50
2022/06/30 07:42:22;;;;;;;7.40;6.30;;;39.10;69.50;;;;;;5031043;28;20339;-54
2022/06/30 07:44:47;;;;;;;7.53;6.78;;;39.10;68.90;;;;;;5031189;28;20022;-52
2022/06/30 07:47:14;;;;;;;8.40;7.45;;;39.20;68.70;;;;;;5030431;28;20037;-56
2022/06/30 07:49:40;;;;;;;5.95;5.45;;;39.40;68.40;;;;;;5031366;28;20021;-52
2022/06/30 07:52:06;;;;;;;9.18;6.78;;;39.40;69.00;;;;;;5031451;28;20018;-56
2022/06/30 07:54:32;;;;;;;7.22;6.60;;;39.70;68.20;;;;;;5031543;28;20078;-54
2022/06/30 07:56:58;;;;;;;7.10;5.45;;;39.80;67.10;;;;;;5030708;28;20572;-56
2022/06/30 07:59:24;;;;;;;11.65;7.30;;;39.80;66.90;;;;;;5031185;28;20095;-54
2022/06/30 08:01:49;;;;;;;15.75;5.78;;;39.60;66.70;;;;;;5030051;28;20064;-56
2022/06/30 08:04:17;;;;;;;9.23;5.10;;;39.60;67.80;;;;;;5031367;28;20151;-57
2022/06/30 08:06:42;;;;;;;5.38;4.38;;;39.80;66.50;;;;;;5031097;28;20127;-55
2022/06/30 08:09:08;;;;;;;8.60;6.68;;;39.30;67.80;;;;;;5012947;28;20076;-57
2022/06/30 08:11:34;;;;;;;10.82;6.88;;;39.40;67.10;;;;;;5031216;28;20025;-56
2022/06/30 08:13:59;;;;;;;9.13;7.80;;;39.40;67.10;;;;;;5030964;28;20049;-53
2022/06/30 08:16:25;;;;;;;8.95;7.28;;;39.10;67.50;;;;;;5031575;28;20028;-55
2022/06/30 08:18:51;;;;;;;9.43;7.07;;;38.50;67.60;;;;;;5030457;28;20030;-57
2022/06/30 08:21:16;;;;;;;10.98;5.88;;;37.80;68.90;;;;;;5030996;28;20397;-57
2022/06/30 08:23:42;;;;;;;7.35;6.53;;;37.50;70.10;;;;;;5031161;28;20140;-56
2022/06/30 08:26:07;;;;;;;7.32;5.57;;;36.60;71.10;;;;;;5031121;28;20044;-52
2022/06/30 08:28:33;;;;;;;9.43;7.15;;;36.50;72.10;;;;;;5012733;28;20511;-57
2022/06/30 08:31:00;;;;;;;14.25;12.95;;;36.50;71.20;;;;;;5030968;28;20536;-58
2022/06/30 08:33:26;;;;;;;18.55;14.25;;;36.40;71.90;;;;;;5031037;28;20022;-57
2022/06/30 08:35:52;;;;;;;40.65;31.77;;;36.10;72.10;;;;;;5031000;28;20036;-53
2022/06/30 08:38:17;;;;;;;9.90;9.00;;;35.60;73.10;;;;;;5030175;28;20079;-58
2022/06/30 08:43:31;;;;;;;7.07;6.47;;;35.00;74.70;;;;;;5031266;28;20079;-54
2022/06/30 08:45:58;;;;;;;8.60;7.65;;;35.00;74.90;;;;;;5031004;28;20026;-56
2022/06/30 08:48:24;;;;;;;7.65;6.63;;;34.70;74.60;;;;;;5030023;28;20412;-56
2022/06/30 08:50:56;;;;;;;11.45;8.30;;;34.50;76.20;;;;;;5030868;28;20025;-55
2022/06/30 08:53:24;;;;;;;9.02;6.80;;;34.20;75.60;;;;;;5030999;28;20547;-53
2022/06/30 08:55:50;;;;;;;12.98;7.40;;;34.20;76.40;;;;;;5032472;28;20025;-57
2022/06/30 08:58:19;;;;;;;9.80;6.32;;;34.30;75.50;;;;;;5033761;28;20507;-57
2022/06/30 09:00:45;;;;;;;10.02;7.13;;;34.10;76.00;;;;;;5034029;28;20037;-56
2022/06/30 09:03:11;;;;;;;7.07;6.35;;;33.90;76.90;;;;;;5034442;28;20029;-58
2022/06/30 09:05:38;;;;;;;8.05;7.15;;;34.10;77.50;;;;;;5034257;28;20017;-55
2022/06/30 09:08:04;;;;;;;6.53;6.00;;;34.30;76.10;;;;;;5033536;28;20036;-57
2022/06/30 09:10:30;;;;;;;5.85;5.28;;;34.10;76.70;;;;;;5034271;28;20026;-58
2022/06/30 09:13:00;;;;;;;11.00;6.80;;;34.20;77.90;;;;;;5034365;28;20021;-56
2022/06/30 09:15:31;;;;;;;10.57;6.78;;;34.00;76.50;;;;;;5033982;28;20033;-56
2022/06/30 09:17:58;;;;;;;11.95;5.60;;;33.80;77.10;;;;;;5033488;28;20155;-57
2022/06/30 09:20:38;;;;;;;8.77;5.85;;;33.70;77.00;;;;;;5034044;28;20021;-58
2022/06/30 09:23:24;;;;;;;8.23;5.70;;;33.70;76.00;;;;;;5034198;28;20029;-57
2022/06/30 09:25:53;;;;;;;8.35;5.18;;;33.90;75.90;;;;;;5034809;28;20026;-56
2022/06/30 09:28:38;;;;;;;8.80;4.72;;;34.00;74.50;;;;;;5033578;28;20022;-58
2022/06/30 09:31:03;;;;;;;8.93;4.85;;;34.00;72.40;;;;;;5034037;28;20052;-58
2022/06/30 09:33:39;;;;;;;6.18;4.50;;;34.10;71.90;;;;;;5034484;28;20053;-56
2022/06/30 09:36:25;;;;;;;7.15;4.68;;;33.90;72.60;;;;;;5033638;28;20022;-57
2022/06/30 09:39:06;;;;;;;5.47;4.97;;;33.60;72.80;;;;;;5033113;28;20028;-55
2022/06/30 09:41:39;;;;;;;5.05;4.57;;;33.60;73.10;;;;;;5015750;28;20120;-53
2022/06/30 09:44:21;;;;;;;4.60;3.70;;;33.40;73.80;;;;;;5033644;28;20017;-57
2022/06/30 09:47:00;;;;;;;9.93;3.88;;;33.70;74.10;;;;;;5031553;28;20018;-55
2022/06/30 09:49:33;;;;;;;4.65;3.95;;;34.00;72.00;;;;;;5014022;28;20017;-54
2022/06/30 09:51:59;;;;;;;4.40;4.00;;;33.80;70.60;;;;;;5033032;28;20083;-58
2022/06/30 09:54:26;;;;;;;8.70;3.75;;;33.60;71.00;;;;;;5015502;28;20026;-58
2022/06/30 09:57:05;;;;;;;7.65;3.40;;;33.20;70.40;;;;;;5032990;28;20021;-56
2022/06/30 09:59:32;;;;;;;4.32;3.20;;;33.00;69.70;;;;;;5032991;28;20037;-58
2022/06/30 10:02:01;;;;;;;39.20;33.83;;;32.80;69.20;;;;;;5031734;28;20095;-55
2022/06/30 10:04:26;;;;;;;7.32;5.35;;;33.00;69.80;;;;;;5033612;28;20438;-57
2022/06/30 10:06:53;;;;;;;9.82;4.60;;;33.20;72.80;;;;;;5014402;28;20061;-50
2022/06/30 10:09:18;;;;;;;7.75;3.72;;;33.30;72.90;;;;;;5033244;28;20030;-57
2022/06/30 10:11:45;;;;;;;5.22;4.72;;;33.10;72.30;;;;;;5033128;28;20040;-57
2022/06/30 10:14:12;;;;;;;5.13;4.63;;;32.80;74.10;;;;;;5033544;28;20021;-54
2022/06/30 10:16:42;;;;;;;7.53;4.60;;;32.40;75.20;;;;;;5033405;28;20077;-55
2022/06/30 10:19:09;;;;;;;4.47;4.07;;;32.30;74.20;;;;;;5032656;28;20025;-57
2022/06/30 10:21:37;;;;;;;4.53;3.50;;;32.20;72.90;;;;;;5033334;28;20093;-57
2022/06/30 10:24:06;;;;;;;3.80;3.30;;;32.00;72.20;;;;;;5033094;28;20103;-57
2022/06/30 10:29:17;;;;;;;4.78;3.28;;;32.10;72.30;;;;;;5033136;28;20068;-56
2022/06/30 10:31:51;;;;;;;5.22;3.40;;;32.20;69.00;;;;;;5032664;28;20069;-58
2022/06/30 10:34:20;;;;;;;12.25;4.35;;;32.10;71.10;;;;;;5033101;28;20269;-55
2022/06/30 10:36:57;;;;;;;4.68;3.47;;;32.20;71.00;;;;;;5032140;28;20392;-54
2022/06/30 10:39:37;;;;;;;9.85;3.45;;;32.20;72.30;;;;;;5032753;28;20563;-57
2022/06/30 10:42:03;;;;;;;8.55;3.67;;;32.20;70.80;;;;;;5032576;28;20037;-55
2022/06/30 10:44:29;;;;;;;3.97;3.58;;;32.30;69.40;;;;;;5032554;28;20040;-58
2022/06/30 10:46:57;;;;;;;3.13;2.88;;;32.10;69.90;;;;;;5031621;28;20079;-58
2022/06/30 10:49:24;;;;;;;4.03;3.50;;;32.00;71.10;;;;;;5031972;28;20037;-58
2022/06/30 10:51:54;;;;;;;7.15;3.15;;;32.00;70.90;;;;;;5031705;28;20013;-52
2022/06/30 10:54:31;;;;;;;8.15;3.40;;;32.00;70.60;;;;;;5032334;28;20026;-55
2022/06/30 10:56:58;;;;;;;6.97;3.67;;;31.90;71.60;;;;;;5031291;28;20030;-53
2022/06/30 10:59:32;;;;;;;4.10;3.80;;;31.80;69.80;;;;;;5031875;28;20151;-56
2022/06/30 11:02:15;;;;;;;3.83;3.13;;;31.70;70.30;;;;;;5031921;28;20037;-52
2022/06/30 11:04:43;;;;;;;6.18;2.92;;;31.70;71.10;;;;;;5032280;28;20029;-54
2022/06/30 11:07:11;;;;;;;5.50;3.22;;;31.70;69.30;;;;;;5030877;28;20036;-56
2022/06/30 11:09:47;;;;;;;3.72;3.00;;;31.70;69.40;;;;;;5031706;28;20037;-56
2022/06/30 11:12:15;;;;;;;3.47;2.47;;;31.70;69.70;;;;;;5031874;28;20025;-53
2022/06/30 11:14:48;;;;;;;25.13;22.45;;;31.70;70.10;;;;;;5032139;28;20025;-56
2022/06/30 11:17:15;;;;;;;17.08;12.38;;;31.70;69.20;;;;;;5030056;28;20025;-52
2022/06/30 11:19:41;;;;;;;15.50;12.90;;;31.70;70.10;;;;;;5031289;28;20393;-56
2022/06/30 11:22:07;;;;;;;5.07;3.17;;;31.80;70.90;;;;;;5031943;28;20028;-55
2022/06/30 11:24:37;;;;;;;6.28;3.15;;;31.80;70.10;;;;;;5031823;28;20033;-56
2022/06/30 11:27:24;;;;;;;5.18;3.08;;;31.80;69.80;;;;;;5031110;28;20087;-55
2022/06/30 11:29:57;;;;;;;6.68;3.00;;;31.50;70.10;;;;;;5031664;28;20555;-47
2022/06/30 11:32:23;;;;;;;8.13;3.55;;;31.30;70.30;;;;;;5031743;28;20029;-47
2022/06/30 11:34:49;;;;;;;5.45;3.22;;;31.00;70.60;;;;;;5031657;28;20025;-54
2022/06/30 11:37:22;;;;;;;3.65;3.03;;;30.70;72.00;;;;;;5030947;28;20215;-51
2022/06/30 11:39:47;;;;;;;5.53;3.30;;;30.40;73.80;;;;;;5031613;28;20115;-54
2022/06/30 11:42:13;;;;;;;6.18;3.05;;;30.20;74.10;;;;;;5031633;28;20076;-55
2022/06/30 11:44:40;;;;;;;3.60;2.92;;;30.00;73.50;;;;;;5013630;28;20067;-53
2022/06/30 11:47:11;;;;;;;3.65;3.35;;;30.00;74.10;;;;;;5030596;28;20025;-55
2022/06/30 11:49:45;;;;;;;7.03;3.33;;;29.90;73.00;;;;;;5031340;28;20025;-54
2022/06/30 11:52:18;;;;;;;9.02;3.40;;;30.00;72.70;;;;;;5031646;28;20017;-54
2022/06/30 11:54:49;;;;;;;3.92;3.08;;;30.10;72.00;;;;;;5031347;28;20040;-51
2022/06/30 11:57:17;;;;;;;10.65;3.20;;;30.00;72.10;;;;;;5030712;28;20020;-56
2022/06/30 11:59:48;;;;;;;3.85;3.00;;;30.00;72.90;;;;;;5030962;28;20037;-55
2022/06/30 12:02:14;;;;;;;6.70;3.78;;;30.00;73.10;;;;;;5031172;28;20033;-54
2022/06/30 12:04:41;;;;;;;6.07;2.80;;;30.20;72.10;;;;;;5031272;28;20021;-55
2022/06/30 12:07:09;;;;;;;4.80;3.15;;;30.20;72.60;;;;;;5030072;28;20033;-57
2022/06/30 12:09:35;;;;;;;5.68;2.85;;;30.20;71.90;;;;;;5030896;28;20044;-53
2022/06/30 12:12:03;;;;;;;3.20;2.58;;;30.20;72.60;;;;;;5031078;28;20026;-52
2022/06/30 12:14:33;;;;;;;3.08;2.55;;;30.20;72.50;;;;;;5031143;28;20028;-56
2022/06/30 12:16:58;;;;;;;6.35;2.50;;;30.20;72.10;;;;;;5028944;28;20037;-53
2022/06/30 12:19:25;;;;;;;8.02;2.85;;;30.30;71.80;;;;;;5031201;28;20025;-55
2022/06/30 12:21:52;;;;;;;3.60;2.58;;;30.30;73.60;;;;;;5031027;28;20025;-57
2022/06/30 12:24:18;;;;;;;6.43;3.10;;;30.40;72.20;;;;;;5030994;28;20033;-56
2022/06/30 12:26:58;;;;;;;2.33;2.13;;;30.40;71.00;;;;;;5030718;28;20025;-53
2022/06/30 12:29:26;;;;;;;2.78;2.55;;;30.40;71.80;;;;;;5031159;28;20112;-53
2022/06/30 12:32:08;;;;;;;6.13;2.55;;;30.40;72.80;;;;;;5034432;28;20026;-52
2022/06/30 12:34:55;;;;;;;5.13;2.58;;;30.50;71.90;;;;;;5016917;28;20030;-54
2022/06/30 12:37:32;;;;;;;8.40;2.45;;;30.60;71.60;;;;;;5034199;28;20018;-55
2022/06/30 12:40:03;;;;;;;4.82;2.67;;;30.70;71.70;;;;;;5016899;28;20382;-55
2022/06/30 12:42:59;;;;;;;6.00;2.10;;;30.80;70.80;;;;;;5034866;28;20022;-54
2022/06/30 12:45:54;;;;;;;6.18;1.90;;;30.90;67.40;;;;;;5025628;28;20041;-53
2022/06/30 12:48:47;;;;;;;7.97;2.60;;;30.90;67.40;;;;;;5034078;28;20022;-53
2022/06/30 12:51:36;;;;;;;4.80;3.90;;;30.90;65.80;;;;;;5034555;28;20026;-53
2022/06/30 12:54:07;;;;;;;2.92;2.17;;;30.80;66.70;;;;;;5034487;28;20096;-54